Terminal Aerodrome Forecast
Issued by NWS Los Angeles, CA

Home | Current Version | Previous Version | Text Only | Print | Product List | Glossary On
Versions: 1 2 3 4 5 6 7 8 9 10 11 12 13 14 15 16 17 18 19 20 21
745
FTUS46 KLOX 312322
TAFSMX
TAF
KSMX 312322Z 0100/0124 30015G22KT P6SM SKC
     FM010200 30008KT P6SM SKC
     FM010600 VRB03KT 4SM BR BKN008
     FM011600 VRB03KT P6SM SKC
     FM011800 30009KT P6SM SKC
     FM012200 30018G25KT P6SM SKC=

USA.gov is the U.S. government's official web portal to all federal, state and local government web resources and services.